sensor_id;sensor_type;location;lat;lon;timestamp;P1;durP1;ratioP1;P2;durP2;ratioP2
72117;SDS011;59992;47.490;8.736;2023-04-15T00:00:02;1.50;;;0.70;;
72117;SDS011;59992;47.490;8.736;2023-04-15T00:02:54;3.70;;;0.80;;
72117;SDS011;59992;47.490;8.736;2023-04-15T00:05:44;2.00;;;1.10;;
72117;SDS011;59992;47.490;8.736;2023-04-15T00:08:35;1.80;;;0.90;;
72117;SDS011;59992;47.490;8.736;2023-04-15T00:11:25;2.20;;;0.80;;
72117;SDS011;59992;47.490;8.736;2023-04-15T00:14:16;2.40;;;0.80;;
72117;SDS011;59992;47.490;8.736;2023-04-15T00:17:06;2.20;;;0.90;;
72117;SDS011;59992;47.490;8.736;2023-04-15T00:19:57;2.80;;;0.90;;
72117;SDS011;59992;47.490;8.736;2023-04-15T00:22:47;4.70;;;1.20;;
72117;SDS011;59992;47.490;8.736;2023-04-15T00:25:37;2.40;;;1.30;;
72117;SDS011;59992;47.490;8.736;2023-04-15T00:28:28;3.30;;;1.20;;
72117;SDS011;59992;47.490;8.736;2023-04-15T00:31:18;2.60;;;0.80;;
72117;SDS011;59992;47.490;8.736;2023-04-15T00:34:09;2.00;;;1.00;;
72117;SDS011;59992;47.490;8.736;2023-04-15T00:36:59;4.50;;;1.00;;
72117;SDS011;59992;47.490;8.736;2023-04-15T00:39:49;2.70;;;1.00;;
72117;SDS011;59992;47.490;8.736;2023-04-15T00:42:39;4.20;;;1.20;;
72117;SDS011;59992;47.490;8.736;2023-04-15T00:45:29;5.10;;;1.10;;
72117;SDS011;59992;47.490;8.736;2023-04-15T00:48:20;4.40;;;1.30;;
72117;SDS011;59992;47.490;8.736;2023-04-15T00:51:10;3.50;;;1.30;;
72117;SDS011;59992;47.490;8.736;2023-04-15T00:54:00;3.20;;;1.10;;
72117;SDS011;59992;47.490;8.736;2023-04-15T00:56:51;2.30;;;1.00;;
72117;SDS011;59992;47.490;8.736;2023-04-15T00:59:43;3.40;;;1.20;;
72117;SDS011;59992;47.490;8.736;2023-04-15T01:02:34;2.60;;;1.30;;
72117;SDS011;59992;47.490;8.736;2023-04-15T01:05:25;3.60;;;1.00;;
72117;SDS011;59992;47.490;8.736;2023-04-15T01:08:15;3.10;;;1.40;;
72117;SDS011;59992;47.490;8.736;2023-04-15T01:11:05;3.60;;;1.20;;
72117;SDS011;59992;47.490;8.736;2023-04-15T01:13:57;3.60;;;1.30;;
72117;SDS011;59992;47.490;8.736;2023-04-15T01:16:48;3.00;;;1.10;;
72117;SDS011;59992;47.490;8.736;2023-04-15T01:19:38;2.80;;;1.40;;
72117;SDS011;59992;47.490;8.736;2023-04-15T01:22:30;3.00;;;1.10;;
72117;SDS011;59992;47.490;8.736;2023-04-15T01:25:27;3.20;;;1.00;;
72117;SDS011;59992;47.490;8.736;2023-04-15T01:28:21;3.00;;;1.10;;
72117;SDS011;59992;47.490;8.736;2023-04-15T01:31:12;2.30;;;1.20;;
72117;SDS011;59992;47.490;8.736;2023-04-15T01:34:03;2.60;;;0.90;;
72117;SDS011;59992;47.490;8.736;2023-04-15T01:36:53;1.70;;;1.00;;
72117;SDS011;59992;47.490;8.736;2023-04-15T01:39:43;5.00;;;1.00;;
72117;SDS011;59992;47.490;8.736;2023-04-15T01:42:34;4.80;;;1.30;;
72117;SDS011;59992;47.490;8.736;2023-04-15T01:45:24;4.30;;;1.10;;
72117;SDS011;59992;47.490;8.736;2023-04-15T01:48:15;2.10;;;1.10;;
72117;SDS011;59992;47.490;8.736;2023-04-15T01:51:07;4.50;;;1.30;;
72117;SDS011;59992;47.490;8.736;2023-04-15T01:53:57;3.10;;;1.00;;
72117;SDS011;59992;47.490;8.736;2023-04-15T01:56:47;2.30;;;1.10;;
72117;SDS011;59992;47.490;8.736;2023-04-15T01:59:39;2.50;;;0.90;;
72117;SDS011;59992;47.490;8.736;2023-04-15T02:02:29;3.10;;;1.00;;
72117;SDS011;59992;47.490;8.736;2023-04-15T02:05:19;1.90;;;0.90;;
72117;SDS011;59992;47.490;8.736;2023-04-15T02:08:10;1.90;;;1.00;;
72117;SDS011;59992;47.490;8.736;2023-04-15T02:11:00;2.60;;;0.90;;
72117;SDS011;59992;47.490;8.736;2023-04-15T02:13:50;4.90;;;1.20;;
72117;SDS011;59992;47.490;8.736;2023-04-15T02:16:41;3.00;;;1.00;;
72117;SDS011;59992;47.490;8.736;2023-04-15T02:19:32;2.20;;;0.80;;
72117;SDS011;59992;47.490;8.736;2023-04-15T02:22:22;4.00;;;1.00;;
72117;SDS011;59992;47.490;8.736;2023-04-15T02:25:12;1.40;;;1.00;;
72117;SDS011;59992;47.490;8.736;2023-04-15T02:28:03;2.70;;;0.90;;
72117;SDS011;59992;47.490;8.736;2023-04-15T02:30:53;3.00;;;1.10;;
72117;SDS011;59992;47.490;8.736;2023-04-15T02:33:45;2.70;;;1.00;;
72117;SDS011;59992;47.490;8.736;2023-04-15T02:36:35;2.30;;;0.90;;
72117;SDS011;59992;47.490;8.736;2023-04-15T02:39:27;2.50;;;1.10;;
72117;SDS011;59992;47.490;8.736;2023-04-15T02:42:17;4.50;;;0.90;;
72117;SDS011;59992;47.490;8.736;2023-04-15T02:45:08;2.30;;;1.10;;
72117;SDS011;59992;47.490;8.736;2023-04-15T02:47:59;2.00;;;1.10;;
72117;SDS011;59992;47.490;8.736;2023-04-15T02:50:52;1.50;;;0.90;;
72117;SDS011;59992;47.490;8.736;2023-04-15T02:53:58;3.90;;;1.00;;
72117;SDS011;59992;47.490;8.736;2023-04-15T02:56:48;4.40;;;1.20;;
72117;SDS011;59992;47.490;8.736;2023-04-15T02:59:38;4.80;;;1.10;;
72117;SDS011;59992;47.490;8.736;2023-04-15T03:02:33;2.10;;;1.00;;
72117;SDS011;59992;47.490;8.736;2023-04-15T03:05:24;3.50;;;1.30;;
72117;SDS011;59992;47.490;8.736;2023-04-15T03:08:15;2.40;;;0.90;;
72117;SDS011;59992;47.490;8.736;2023-04-15T03:11:05;4.20;;;1.00;;
72117;SDS011;59992;47.490;8.736;2023-04-15T03:13:55;2.70;;;1.30;;
72117;SDS011;59992;47.490;8.736;2023-04-15T03:16:46;2.60;;;0.80;;
72117;SDS011;59992;47.490;8.736;2023-04-15T03:19:36;1.80;;;0.80;;
72117;SDS011;59992;47.490;8.736;2023-04-15T03:22:27;2.60;;;1.10;;
72117;SDS011;59992;47.490;8.736;2023-04-15T03:25:17;3.10;;;1.00;;
72117;SDS011;59992;47.490;8.736;2023-04-15T03:28:07;4.50;;;1.00;;
72117;SDS011;59992;47.490;8.736;2023-04-15T03:30:57;4.50;;;1.10;;
72117;SDS011;59992;47.490;8.736;2023-04-15T03:33:47;3.50;;;1.00;;
72117;SDS011;59992;47.490;8.736;2023-04-15T03:36:38;1.60;;;0.80;;
72117;SDS011;59992;47.490;8.736;2023-04-15T03:39:28;1.70;;;1.00;;
72117;SDS011;59992;47.490;8.736;2023-04-15T03:42:18;2.60;;;1.10;;
72117;SDS011;59992;47.490;8.736;2023-04-15T03:45:09;3.00;;;0.90;;
72117;SDS011;59992;47.490;8.736;2023-04-15T03:48:00;1.20;;;0.70;;
72117;SDS011;59992;47.490;8.736;2023-04-15T03:50:51;7.90;;;1.10;;
72117;SDS011;59992;47.490;8.736;2023-04-15T03:53:42;2.90;;;1.00;;
72117;SDS011;59992;47.490;8.736;2023-04-15T03:56:32;2.10;;;1.10;;
72117;SDS011;59992;47.490;8.736;2023-04-15T03:59:23;3.00;;;0.80;;
72117;SDS011;59992;47.490;8.736;2023-04-15T04:02:13;1.70;;;0.90;;
72117;SDS011;59992;47.490;8.736;2023-04-15T04:05:03;3.00;;;0.90;;
72117;SDS011;59992;47.490;8.736;2023-04-15T04:07:54;3.60;;;1.10;;
72117;SDS011;59992;47.490;8.736;2023-04-15T04:10:44;2.50;;;1.20;;
72117;SDS011;59992;47.490;8.736;2023-04-15T04:13:34;2.70;;;1.00;;
72117;SDS011;59992;47.490;8.736;2023-04-15T04:16:25;1.80;;;0.90;;
72117;SDS011;59992;47.490;8.736;2023-04-15T04:19:15;2.40;;;1.00;;
72117;SDS011;59992;47.490;8.736;2023-04-15T04:22:06;5.10;;;1.10;;
72117;SDS011;59992;47.490;8.736;2023-04-15T04:24:56;1.70;;;0.80;;
72117;SDS011;59992;47.490;8.736;2023-04-15T04:27:49;3.90;;;1.00;;
72117;SDS011;59992;47.490;8.736;2023-04-15T04:30:39;3.80;;;1.10;;
72117;SDS011;59992;47.490;8.736;2023-04-15T04:33:29;2.20;;;0.90;;
72117;SDS011;59992;47.490;8.736;2023-04-15T04:36:20;3.40;;;0.80;;
72117;SDS011;59992;47.490;8.736;2023-04-15T04:39:10;1.30;;;0.90;;
72117;SDS011;59992;47.490;8.736;2023-04-15T04:42:00;4.70;;;1.10;;
72117;SDS011;59992;47.490;8.736;2023-04-15T04:44:51;3.20;;;1.10;;
72117;SDS011;59992;47.490;8.736;2023-04-15T04:47:41;1.90;;;0.70;;
72117;SDS011;59992;47.490;8.736;2023-04-15T04:50:31;2.60;;;0.90;;
72117;SDS011;59992;47.490;8.736;2023-04-15T04:53:21;6.20;;;0.90;;
72117;SDS011;59992;47.490;8.736;2023-04-15T04:56:12;3.40;;;0.80;;
72117;SDS011;59992;47.490;8.736;2023-04-15T04:59:02;2.00;;;0.90;;
72117;SDS011;59992;47.490;8.736;2023-04-15T05:01:53;1.70;;;0.90;;
72117;SDS011;59992;47.490;8.736;2023-04-15T05:04:44;2.50;;;0.80;;
72117;SDS011;59992;47.490;8.736;2023-04-15T05:07:34;3.10;;;1.00;;
72117;SDS011;59992;47.490;8.736;2023-04-15T05:10:26;2.70;;;0.80;;
72117;SDS011;59992;47.490;8.736;2023-04-15T05:13:30;3.40;;;1.30;;
72117;SDS011;59992;47.490;8.736;2023-04-15T05:16:25;1.90;;;0.70;;
72117;SDS011;59992;47.490;8.736;2023-04-15T05:19:15;7.70;;;3.00;;
72117;SDS011;59992;47.490;8.736;2023-04-15T05:22:06;2.20;;;1.10;;
72117;SDS011;59992;47.490;8.736;2023-04-15T05:24:56;4.90;;;1.00;;
72117;SDS011;59992;47.490;8.736;2023-04-15T05:27:47;2.80;;;1.20;;
72117;SDS011;59992;47.490;8.736;2023-04-15T05:30:38;2.90;;;1.10;;
72117;SDS011;59992;47.490;8.736;2023-04-15T05:33:28;2.20;;;1.00;;
72117;SDS011;59992;47.490;8.736;2023-04-15T05:36:19;1.70;;;1.20;;
72117;SDS011;59992;47.490;8.736;2023-04-15T05:39:10;2.80;;;1.00;;
72117;SDS011;59992;47.490;8.736;2023-04-15T05:42:01;2.00;;;0.90;;
72117;SDS011;59992;47.490;8.736;2023-04-15T05:44:55;2.40;;;0.80;;
72117;SDS011;59992;47.490;8.736;2023-04-15T05:47:46;2.60;;;1.20;;
72117;SDS011;59992;47.490;8.736;2023-04-15T05:50:41;2.30;;;1.10;;
72117;SDS011;59992;47.490;8.736;2023-04-15T05:53:32;1.80;;;0.80;;
72117;SDS011;59992;47.490;8.736;2023-04-15T05:56:23;5.60;;;1.20;;
72117;SDS011;59992;47.490;8.736;2023-04-15T05:59:13;2.50;;;0.80;;
72117;SDS011;59992;47.490;8.736;2023-04-15T06:02:04;1.10;;;0.80;;
72117;SDS011;59992;47.490;8.736;2023-04-15T06:04:54;2.50;;;1.10;;
72117;SDS011;59992;47.490;8.736;2023-04-15T06:07:44;3.60;;;1.30;;
72117;SDS011;59992;47.490;8.736;2023-04-15T06:10:36;2.80;;;0.90;;
72117;SDS011;59992;47.490;8.736;2023-04-15T06:13:26;2.00;;;0.90;;
72117;SDS011;59992;47.490;8.736;2023-04-15T06:16:16;1.70;;;1.10;;
72117;SDS011;59992;47.490;8.736;2023-04-15T06:19:07;2.70;;;1.00;;
72117;SDS011;59992;47.490;8.736;2023-04-15T06:21:58;3.40;;;0.90;;
72117;SDS011;59992;47.490;8.736;2023-04-15T06:24:49;4.10;;;1.30;;
72117;SDS011;59992;47.490;8.736;2023-04-15T06:27:39;1.80;;;1.00;;
72117;SDS011;59992;47.490;8.736;2023-04-15T06:30:29;1.80;;;0.90;;
72117;SDS011;59992;47.490;8.736;2023-04-15T06:33:20;2.60;;;1.00;;
72117;SDS011;59992;47.490;8.736;2023-04-15T06:36:10;2.10;;;1.00;;
72117;SDS011;59992;47.490;8.736;2023-04-15T06:39:01;4.30;;;1.30;;
72117;SDS011;59992;47.490;8.736;2023-04-15T06:41:51;3.00;;;1.10;;
72117;SDS011;59992;47.490;8.736;2023-04-15T06:44:42;4.10;;;1.30;;
72117;SDS011;59992;47.490;8.736;2023-04-15T06:47:32;3.60;;;1.40;;
72117;SDS011;59992;47.490;8.736;2023-04-15T06:50:22;2.10;;;1.20;;
72117;SDS011;59992;47.490;8.736;2023-04-15T06:53:13;2.90;;;1.30;;
72117;SDS011;59992;47.490;8.736;2023-04-15T06:56:04;3.30;;;1.30;;
72117;SDS011;59992;47.490;8.736;2023-04-15T06:58:55;3.60;;;1.40;;
72117;SDS011;59992;47.490;8.736;2023-04-15T07:01:45;3.10;;;1.50;;
72117;SDS011;59992;47.490;8.736;2023-04-15T07:04:36;3.40;;;1.60;;
72117;SDS011;59992;47.490;8.736;2023-04-15T07:07:26;5.70;;;1.70;;
72117;SDS011;59992;47.490;8.736;2023-04-15T07:10:16;3.60;;;1.60;;
72117;SDS011;59992;47.490;8.736;2023-04-15T07:13:07;4.60;;;1.80;;
72117;SDS011;59992;47.490;8.736;2023-04-15T07:15:57;3.80;;;1.50;;
72117;SDS011;59992;47.490;8.736;2023-04-15T07:18:47;2.70;;;1.30;;
72117;SDS011;59992;47.490;8.736;2023-04-15T07:21:37;3.50;;;1.50;;
72117;SDS011;59992;47.490;8.736;2023-04-15T07:24:28;3.30;;;1.40;;
72117;SDS011;59992;47.490;8.736;2023-04-15T07:27:18;3.90;;;1.70;;
72117;SDS011;59992;47.490;8.736;2023-04-15T07:30:09;3.20;;;1.50;;
72117;SDS011;59992;47.490;8.736;2023-04-15T07:33:00;3.70;;;1.60;;
72117;SDS011;59992;47.490;8.736;2023-04-15T07:35:51;4.00;;;1.40;;
72117;SDS011;59992;47.490;8.736;2023-04-15T07:38:41;2.70;;;1.30;;
72117;SDS011;59992;47.490;8.736;2023-04-15T07:41:34;3.30;;;1.60;;
72117;SDS011;59992;47.490;8.736;2023-04-15T07:44:24;3.50;;;1.70;;
72117;SDS011;59992;47.490;8.736;2023-04-15T07:47:15;2.30;;;1.50;;
72117;SDS011;59992;47.490;8.736;2023-04-15T07:50:05;3.20;;;1.40;;
72117;SDS011;59992;47.490;8.736;2023-04-15T07:52:57;4.80;;;1.80;;
72117;SDS011;59992;47.490;8.736;2023-04-15T07:55:47;2.90;;;1.40;;
72117;SDS011;59992;47.490;8.736;2023-04-15T07:58:38;6.20;;;1.70;;
72117;SDS011;59992;47.490;8.736;2023-04-15T08:01:28;4.60;;;1.70;;
72117;SDS011;59992;47.490;8.736;2023-04-15T08:04:19;4.00;;;1.50;;
72117;SDS011;59992;47.490;8.736;2023-04-15T08:07:10;5.70;;;1.90;;
72117;SDS011;59992;47.490;8.736;2023-04-15T08:10:00;3.10;;;1.80;;
72117;SDS011;59992;47.490;8.736;2023-04-15T08:12:50;4.30;;;1.60;;
72117;SDS011;59992;47.490;8.736;2023-04-15T08:15:41;5.40;;;2.10;;
72117;SDS011;59992;47.490;8.736;2023-04-15T08:18:32;5.30;;;1.80;;
72117;SDS011;59992;47.490;8.736;2023-04-15T08:21:22;4.20;;;1.90;;
72117;SDS011;59992;47.490;8.736;2023-04-15T08:24:13;5.30;;;2.10;;
72117;SDS011;59992;47.490;8.736;2023-04-15T08:27:03;7.70;;;2.30;;
72117;SDS011;59992;47.490;8.736;2023-04-15T08:29:54;4.70;;;1.80;;
72117;SDS011;59992;47.490;8.736;2023-04-15T08:32:45;5.00;;;2.10;;
72117;SDS011;59992;47.490;8.736;2023-04-15T08:35:36;4.30;;;1.90;;
72117;SDS011;59992;47.490;8.736;2023-04-15T08:38:27;6.20;;;2.30;;
72117;SDS011;59992;47.490;8.736;2023-04-15T08:41:19;4.20;;;2.10;;
72117;SDS011;59992;47.490;8.736;2023-04-15T08:44:11;4.30;;;1.90;;
72117;SDS011;59992;47.490;8.736;2023-04-15T08:47:02;5.00;;;1.90;;
72117;SDS011;59992;47.490;8.736;2023-04-15T08:49:55;4.60;;;1.60;;
72117;SDS011;59992;47.490;8.736;2023-04-15T08:52:46;4.60;;;1.90;;
72117;SDS011;59992;47.490;8.736;2023-04-15T08:55:39;4.90;;;2.00;;
72117;SDS011;59992;47.490;8.736;2023-04-15T08:58:32;5.10;;;1.90;;
72117;SDS011;59992;47.490;8.736;2023-04-15T09:01:23;4.70;;;1.70;;
72117;SDS011;59992;47.490;8.736;2023-04-15T09:04:13;4.30;;;1.90;;
72117;SDS011;59992;47.490;8.736;2023-04-15T09:07:04;4.60;;;1.80;;
72117;SDS011;59992;47.490;8.736;2023-04-15T09:09:54;5.70;;;1.90;;
72117;SDS011;59992;47.490;8.736;2023-04-15T09:12:44;4.40;;;2.00;;
72117;SDS011;59992;47.490;8.736;2023-04-15T09:15:38;2.40;;;1.40;;
72117;SDS011;59992;47.490;8.736;2023-04-15T09:18:28;4.50;;;2.00;;
72117;SDS011;59992;47.490;8.736;2023-04-15T09:21:20;2.00;;;1.20;;
72117;SDS011;59992;47.490;8.736;2023-04-15T09:24:11;3.20;;;1.60;;
72117;SDS011;59992;47.490;8.736;2023-04-15T09:27:02;4.40;;;1.80;;
72117;SDS011;59992;47.490;8.736;2023-04-15T09:29:53;4.10;;;1.60;;
72117;SDS011;59992;47.490;8.736;2023-04-15T09:32:48;4.30;;;1.60;;
72117;SDS011;59992;47.490;8.736;2023-04-15T09:35:39;5.40;;;1.80;;
72117;SDS011;59992;47.490;8.736;2023-04-15T09:38:29;4.50;;;1.70;;
72117;SDS011;59992;47.490;8.736;2023-04-15T09:41:20;3.10;;;1.40;;
72117;SDS011;59992;47.490;8.736;2023-04-15T09:44:22;4.70;;;1.60;;
72117;SDS011;59992;47.490;8.736;2023-04-15T09:50:17;3.10;;;1.60;;
72117;SDS011;59992;47.490;8.736;2023-04-15T09:53:09;4.50;;;1.80;;
72117;SDS011;59992;47.490;8.736;2023-04-15T09:56:03;3.40;;;1.60;;
72117;SDS011;59992;47.490;8.736;2023-04-15T09:58:56;2.50;;;1.30;;
72117;SDS011;59992;47.490;8.736;2023-04-15T10:01:47;3.70;;;1.80;;
72117;SDS011;59992;47.490;8.736;2023-04-15T10:04:39;4.10;;;1.70;;
72117;SDS011;59992;47.490;8.736;2023-04-15T10:07:29;5.00;;;1.50;;
72117;SDS011;59992;47.490;8.736;2023-04-15T10:10:20;4.40;;;1.50;;
72117;SDS011;59992;47.490;8.736;2023-04-15T10:13:10;4.80;;;1.50;;
72117;SDS011;59992;47.490;8.736;2023-04-15T10:16:06;3.70;;;1.30;;
72117;SDS011;59992;47.490;8.736;2023-04-15T10:18:59;3.80;;;1.20;;
72117;SDS011;59992;47.490;8.736;2023-04-15T10:21:54;3.20;;;1.20;;
72117;SDS011;59992;47.490;8.736;2023-04-15T10:24:45;3.50;;;1.10;;
72117;SDS011;59992;47.490;8.736;2023-04-15T10:27:36;2.60;;;0.90;;
72117;SDS011;59992;47.490;8.736;2023-04-15T10:30:29;5.30;;;1.10;;
72117;SDS011;59992;47.490;8.736;2023-04-15T10:33:22;3.10;;;1.10;;
72117;SDS011;59992;47.490;8.736;2023-04-15T10:36:13;5.00;;;1.20;;
72117;SDS011;59992;47.490;8.736;2023-04-15T10:39:10;2.20;;;1.10;;
72117;SDS011;59992;47.490;8.736;2023-04-15T10:42:34;5.40;;;1.20;;
72117;SDS011;59992;47.490;8.736;2023-04-15T10:45:25;3.70;;;1.00;;
72117;SDS011;59992;47.490;8.736;2023-04-15T10:48:19;3.80;;;1.20;;
72117;SDS011;59992;47.490;8.736;2023-04-15T10:51:12;3.00;;;1.50;;
72117;SDS011;59992;47.490;8.736;2023-04-15T10:54:03;2.80;;;1.30;;
72117;SDS011;59992;47.490;8.736;2023-04-15T10:57:08;2.40;;;1.00;;
72117;SDS011;59992;47.490;8.736;2023-04-15T11:00:10;2.60;;;0.90;;
72117;SDS011;59992;47.490;8.736;2023-04-15T11:03:05;3.80;;;1.30;;
72117;SDS011;59992;47.490;8.736;2023-04-15T11:05:58;3.10;;;1.50;;
72117;SDS011;59992;47.490;8.736;2023-04-15T11:08:57;4.00;;;1.40;;
72117;SDS011;59992;47.490;8.736;2023-04-15T11:12:05;3.90;;;1.40;;
72117;SDS011;59992;47.490;8.736;2023-04-15T11:14:56;2.20;;;1.00;;
72117;SDS011;59992;47.490;8.736;2023-04-15T11:17:47;3.70;;;1.00;;
72117;SDS011;59992;47.490;8.736;2023-04-15T11:20:39;3.60;;;1.00;;
72117;SDS011;59992;47.490;8.736;2023-04-15T11:23:34;3.10;;;1.10;;
72117;SDS011;59992;47.490;8.736;2023-04-15T11:26:35;2.50;;;0.80;;
72117;SDS011;59992;47.490;8.736;2023-04-15T11:29:29;2.20;;;1.00;;
72117;SDS011;59992;47.490;8.736;2023-04-15T11:32:20;3.70;;;1.10;;
72117;SDS011;59992;47.490;8.736;2023-04-15T11:35:10;4.60;;;1.20;;
72117;SDS011;59992;47.490;8.736;2023-04-15T11:38:03;3.10;;;0.70;;
72117;SDS011;59992;47.490;8.736;2023-04-15T11:40:56;3.50;;;0.90;;
72117;SDS011;59992;47.490;8.736;2023-04-15T11:43:46;2.80;;;0.90;;
72117;SDS011;59992;47.490;8.736;2023-04-15T11:46:37;2.80;;;0.80;;
72117;SDS011;59992;47.490;8.736;2023-04-15T11:49:28;3.60;;;1.30;;
72117;SDS011;59992;47.490;8.736;2023-04-15T11:52:21;3.40;;;0.90;;
72117;SDS011;59992;47.490;8.736;2023-04-15T11:55:12;3.20;;;0.80;;
72117;SDS011;59992;47.490;8.736;2023-04-15T11:58:06;3.40;;;0.80;;
72117;SDS011;59992;47.490;8.736;2023-04-15T12:00:59;6.00;;;1.00;;
72117;SDS011;59992;47.490;8.736;2023-04-15T12:03:50;4.30;;;1.20;;
72117;SDS011;59992;47.490;8.736;2023-04-15T12:06:40;2.00;;;0.90;;
72117;SDS011;59992;47.490;8.736;2023-04-15T12:09:32;4.20;;;0.90;;
72117;SDS011;59992;47.490;8.736;2023-04-15T12:12:27;2.00;;;0.80;;
72117;SDS011;59992;47.490;8.736;2023-04-15T12:15:18;3.60;;;0.80;;
72117;SDS011;59992;47.490;8.736;2023-04-15T12:18:17;2.50;;;1.10;;
72117;SDS011;59992;47.490;8.736;2023-04-15T12:21:09;3.00;;;0.90;;
72117;SDS011;59992;47.490;8.736;2023-04-15T12:24:00;3.70;;;0.80;;
72117;SDS011;59992;47.490;8.736;2023-04-15T12:26:53;1.90;;;0.80;;
72117;SDS011;59992;47.490;8.736;2023-04-15T12:29:45;5.90;;;1.20;;
72117;SDS011;59992;47.490;8.736;2023-04-15T12:32:36;3.70;;;1.40;;
72117;SDS011;59992;47.490;8.736;2023-04-15T12:35:27;5.70;;;1.50;;
72117;SDS011;59992;47.490;8.736;2023-04-15T12:38:18;2.70;;;1.30;;
72117;SDS011;59992;47.490;8.736;2023-04-15T12:41:08;3.50;;;1.20;;
72117;SDS011;59992;47.490;8.736;2023-04-15T12:43:58;4.10;;;1.50;;
72117;SDS011;59992;47.490;8.736;2023-04-15T12:46:48;3.50;;;1.40;;
72117;SDS011;59992;47.490;8.736;2023-04-15T12:49:39;3.30;;;1.60;;
72117;SDS011;59992;47.490;8.736;2023-04-15T12:52:29;2.90;;;1.40;;
72117;SDS011;59992;47.490;8.736;2023-04-15T12:55:20;3.40;;;1.20;;
72117;SDS011;59992;47.490;8.736;2023-04-15T12:58:10;3.60;;;1.40;;
72117;SDS011;59992;47.490;8.736;2023-04-15T13:01:00;3.00;;;1.40;;
72117;SDS011;59992;47.490;8.736;2023-04-15T13:03:50;4.70;;;1.50;;
72117;SDS011;59992;47.490;8.736;2023-04-15T13:06:40;3.80;;;1.60;;
72117;SDS011;59992;47.490;8.736;2023-04-15T13:09:32;5.20;;;1.30;;
72117;SDS011;59992;47.490;8.736;2023-04-15T13:12:22;2.80;;;1.40;;
72117;SDS011;59992;47.490;8.736;2023-04-15T13:15:12;4.90;;;1.70;;
72117;SDS011;59992;47.490;8.736;2023-04-15T13:18:05;4.30;;;1.60;;
72117;SDS011;59992;47.490;8.736;2023-04-15T13:20:56;3.70;;;1.40;;
72117;SDS011;59992;47.490;8.736;2023-04-15T13:23:47;5.00;;;1.70;;
72117;SDS011;59992;47.490;8.736;2023-04-15T13:26:37;4.20;;;1.70;;
72117;SDS011;59992;47.490;8.736;2023-04-15T13:29:28;2.50;;;1.50;;
72117;SDS011;59992;47.490;8.736;2023-04-15T13:32:19;2.40;;;1.30;;
72117;SDS011;59992;47.490;8.736;2023-04-15T13:35:09;3.50;;;1.60;;
72117;SDS011;59992;47.490;8.736;2023-04-15T13:37:59;2.90;;;1.10;;
72117;SDS011;59992;47.490;8.736;2023-04-15T13:40:50;5.60;;;1.70;;
72117;SDS011;59992;47.490;8.736;2023-04-15T13:43:40;5.40;;;1.50;;
72117;SDS011;59992;47.490;8.736;2023-04-15T13:46:30;2.60;;;1.50;;
72117;SDS011;59992;47.490;8.736;2023-04-15T13:49:22;3.10;;;1.20;;
72117;SDS011;59992;47.490;8.736;2023-04-15T13:52:12;2.80;;;1.30;;
72117;SDS011;59992;47.490;8.736;2023-04-15T13:55:02;4.80;;;1.40;;
72117;SDS011;59992;47.490;8.736;2023-04-15T13:57:53;3.60;;;1.40;;
72117;SDS011;59992;47.490;8.736;2023-04-15T14:00:44;3.10;;;1.10;;
72117;SDS011;59992;47.490;8.736;2023-04-15T14:03:34;4.80;;;1.40;;
72117;SDS011;59992;47.490;8.736;2023-04-15T14:06:24;2.60;;;1.00;;
72117;SDS011;59992;47.490;8.736;2023-04-15T14:09:14;3.00;;;1.30;;
72117;SDS011;59992;47.490;8.736;2023-04-15T14:12:05;3.20;;;1.30;;
72117;SDS011;59992;47.490;8.736;2023-04-15T14:14:56;4.30;;;1.20;;
72117;SDS011;59992;47.490;8.736;2023-04-15T14:17:46;2.30;;;1.00;;
72117;SDS011;59992;47.490;8.736;2023-04-15T14:20:37;2.80;;;0.90;;
72117;SDS011;59992;47.490;8.736;2023-04-15T14:23:27;2.20;;;1.00;;
72117;SDS011;59992;47.490;8.736;2023-04-15T14:26:17;1.80;;;0.90;;
72117;SDS011;59992;47.490;8.736;2023-04-15T14:29:07;3.30;;;1.10;;
72117;SDS011;59992;47.490;8.736;2023-04-15T14:31:58;3.50;;;1.30;;
72117;SDS011;59992;47.490;8.736;2023-04-15T14:34:48;3.60;;;1.20;;
72117;SDS011;59992;47.490;8.736;2023-04-15T14:37:38;2.70;;;1.20;;
72117;SDS011;59992;47.490;8.736;2023-04-15T14:40:29;1.30;;;0.90;;
72117;SDS011;59992;47.490;8.736;2023-04-15T14:43:20;2.10;;;1.00;;
72117;SDS011;59992;47.490;8.736;2023-04-15T14:46:10;3.60;;;1.20;;
72117;SDS011;59992;47.490;8.736;2023-04-15T14:49:01;1.60;;;1.00;;
72117;SDS011;59992;47.490;8.736;2023-04-15T14:51:52;4.30;;;1.10;;
72117;SDS011;59992;47.490;8.736;2023-04-15T14:54:42;2.30;;;0.80;;
72117;SDS011;59992;47.490;8.736;2023-04-15T14:57:32;3.30;;;0.90;;
72117;SDS011;59992;47.490;8.736;2023-04-15T15:00:22;2.90;;;1.10;;
72117;SDS011;59992;47.490;8.736;2023-04-15T15:03:12;2.50;;;0.80;;
72117;SDS011;59992;47.490;8.736;2023-04-15T15:06:03;4.30;;;1.10;;
72117;SDS011;59992;47.490;8.736;2023-04-15T15:08:53;2.20;;;1.10;;
72117;SDS011;59992;47.490;8.736;2023-04-15T15:11:43;2.70;;;0.90;;
72117;SDS011;59992;47.490;8.736;2023-04-15T15:14:34;4.40;;;1.00;;
72117;SDS011;59992;47.490;8.736;2023-04-15T15:17:24;2.60;;;1.00;;
72117;SDS011;59992;47.490;8.736;2023-04-15T15:20:14;1.50;;;0.80;;
72117;SDS011;59992;47.490;8.736;2023-04-15T15:23:05;3.00;;;0.90;;
72117;SDS011;59992;47.490;8.736;2023-04-15T15:25:56;3.10;;;0.70;;
72117;SDS011;59992;47.490;8.736;2023-04-15T15:28:46;2.00;;;0.90;;
72117;SDS011;59992;47.490;8.736;2023-04-15T15:31:37;2.50;;;0.70;;
72117;SDS011;59992;47.490;8.736;2023-04-15T15:34:27;1.50;;;0.80;;
72117;SDS011;59992;47.490;8.736;2023-04-15T15:37:18;1.50;;;0.80;;
72117;SDS011;59992;47.490;8.736;2023-04-15T15:40:09;2.10;;;1.20;;
72117;SDS011;59992;47.490;8.736;2023-04-15T15:43:00;2.30;;;0.80;;
72117;SDS011;59992;47.490;8.736;2023-04-15T15:45:51;1.60;;;0.80;;
72117;SDS011;59992;47.490;8.736;2023-04-15T15:48:42;2.10;;;0.80;;
72117;SDS011;59992;47.490;8.736;2023-04-15T15:51:33;3.40;;;1.00;;
72117;SDS011;59992;47.490;8.736;2023-04-15T15:54:23;1.30;;;0.80;;
72117;SDS011;59992;47.490;8.736;2023-04-15T15:57:14;3.10;;;0.80;;
72117;SDS011;59992;47.490;8.736;2023-04-15T16:00:07;1.40;;;0.70;;
72117;SDS011;59992;47.490;8.736;2023-04-15T16:02:59;2.40;;;0.80;;
72117;SDS011;59992;47.490;8.736;2023-04-15T16:05:49;1.30;;;0.60;;
72117;SDS011;59992;47.490;8.736;2023-04-15T16:08:40;0.90;;;0.50;;
72117;SDS011;59992;47.490;8.736;2023-04-15T16:11:30;1.20;;;0.70;;
72117;SDS011;59992;47.490;8.736;2023-04-15T16:14:20;1.40;;;0.70;;
72117;SDS011;59992;47.490;8.736;2023-04-15T16:17:11;1.50;;;0.60;;
72117;SDS011;59992;47.490;8.736;2023-04-15T16:20:02;1.80;;;0.60;;
72117;SDS011;59992;47.490;8.736;2023-04-15T16:22:53;0.90;;;0.70;;
72117;SDS011;59992;47.490;8.736;2023-04-15T16:25:45;1.50;;;0.70;;
72117;SDS011;59992;47.490;8.736;2023-04-15T16:28:36;1.30;;;0.50;;
72117;SDS011;59992;47.490;8.736;2023-04-15T16:31:26;1.60;;;0.80;;
72117;SDS011;59992;47.490;8.736;2023-04-15T16:34:17;1.30;;;0.60;;
72117;SDS011;59992;47.490;8.736;2023-04-15T16:37:08;1.00;;;0.70;;
72117;SDS011;59992;47.490;8.736;2023-04-15T16:39:58;1.90;;;0.60;;
72117;SDS011;59992;47.490;8.736;2023-04-15T16:42:49;0.90;;;0.60;;
72117;SDS011;59992;47.490;8.736;2023-04-15T16:45:39;2.60;;;0.80;;
72117;SDS011;59992;47.490;8.736;2023-04-15T16:48:32;1.40;;;0.70;;
72117;SDS011;59992;47.490;8.736;2023-04-15T16:51:22;1.70;;;0.70;;
72117;SDS011;59992;47.490;8.736;2023-04-15T16:54:12;1.80;;;0.80;;
72117;SDS011;59992;47.490;8.736;2023-04-15T16:57:03;2.10;;;0.60;;
72117;SDS011;59992;47.490;8.736;2023-04-15T16:59:53;2.50;;;1.10;;
72117;SDS011;59992;47.490;8.736;2023-04-15T17:02:43;2.40;;;0.80;;
72117;SDS011;59992;47.490;8.736;2023-04-15T17:05:33;1.50;;;0.80;;
72117;SDS011;59992;47.490;8.736;2023-04-15T17:08:23;2.80;;;0.70;;
72117;SDS011;59992;47.490;8.736;2023-04-15T17:11:14;1.50;;;1.00;;
72117;SDS011;59992;47.490;8.736;2023-04-15T17:14:04;2.10;;;0.80;;